Terminal Aerodrome Forecast
Issued by NWS

Home | Current Version | Previous Version | Text Only | Print | Product List | Glossary On
Versions: 1 2 3 4 5 6 7 8 9 10 11 12 13 14 15 16
857
FTAK31 PAJN 201730
TAFAPG
TAF
PAPG 201730Z 2018/2118 06004KT P6SM VCSH SCT018 OVC035
      TEMPO 2019/2020 OVC018
     FM202100 07004KT 5SM -RA BR OVC018
     FM210300 09004KT 3SM RA BR OVC015
     FM210800 09003KT 3SM RA BR BKN007 OVC012
      AMD LTD TO CLD VIS AND WIND 2106/2115=

USA.gov is the U.S. government's official web portal to all federal, state and local government web resources and services.